sensor_id;sensor_type;location;lat;lon;timestamp;P1;durP1;ratioP1;P2;durP2;ratioP2
19808;SDS011;48538;32.784;-96.802;2023-08-12T00:00:35;4.72;;;1.27;;
19808;SDS011;48538;32.784;-96.802;2023-08-12T00:03:01;3.78;;;1.40;;
19808;SDS011;48538;32.784;-96.802;2023-08-12T00:05:28;4.43;;;1.60;;
19808;SDS011;48538;32.784;-96.802;2023-08-12T00:07:55;3.40;;;1.83;;
19808;SDS011;48538;32.784;-96.802;2023-08-12T00:10:21;3.85;;;1.55;;
19808;SDS011;48538;32.784;-96.802;2023-08-12T00:12:48;3.83;;;1.73;;
19808;SDS011;48538;32.784;-96.802;2023-08-12T00:15:14;4.32;;;1.38;;
19808;SDS011;48538;32.784;-96.802;2023-08-12T00:17:40;7.03;;;1.92;;
19808;SDS011;48538;32.784;-96.802;2023-08-12T00:20:07;7.65;;;1.60;;
19808;SDS011;48538;32.784;-96.802;2023-08-12T00:22:36;2.40;;;1.38;;
19808;SDS011;48538;32.784;-96.802;2023-08-12T00:25:03;2.60;;;1.52;;
19808;SDS011;48538;32.784;-96.802;2023-08-12T00:27:30;2.13;;;1.58;;
19808;SDS011;48538;32.784;-96.802;2023-08-12T00:29:56;6.38;;;1.60;;
19808;SDS011;48538;32.784;-96.802;2023-08-12T00:32:22;5.32;;;1.40;;
19808;SDS011;48538;32.784;-96.802;2023-08-12T00:34:48;5.85;;;1.60;;
19808;SDS011;48538;32.784;-96.802;2023-08-12T00:37:15;5.75;;;1.85;;
19808;SDS011;48538;32.784;-96.802;2023-08-12T00:39:41;5.93;;;1.63;;
19808;SDS011;48538;32.784;-96.802;2023-08-12T00:42:07;2.90;;;1.52;;
19808;SDS011;48538;32.784;-96.802;2023-08-12T00:44:34;5.88;;;1.60;;
19808;SDS011;48538;32.784;-96.802;2023-08-12T00:47:00;4.35;;;1.98;;
19808;SDS011;48538;32.784;-96.802;2023-08-12T00:49:26;6.72;;;1.60;;
19808;SDS011;48538;32.784;-96.802;2023-08-12T00:51:53;3.33;;;1.58;;
19808;SDS011;48538;32.784;-96.802;2023-08-12T00:54:20;5.05;;;1.70;;
19808;SDS011;48538;32.784;-96.802;2023-08-12T00:56:50;2.47;;;1.67;;
19808;SDS011;48538;32.784;-96.802;2023-08-12T00:59:18;3.95;;;1.70;;
19808;SDS011;48538;32.784;-96.802;2023-08-12T01:01:46;5.85;;;1.60;;
19808;SDS011;48538;32.784;-96.802;2023-08-12T01:04:13;6.88;;;1.77;;
19808;SDS011;48538;32.784;-96.802;2023-08-12T01:06:39;4.40;;;1.63;;
19808;SDS011;48538;32.784;-96.802;2023-08-12T01:09:06;3.60;;;1.77;;
19808;SDS011;48538;32.784;-96.802;2023-08-12T01:14:17;6.15;;;1.90;;
19808;SDS011;48538;32.784;-96.802;2023-08-12T01:17:00;5.22;;;1.95;;
19808;SDS011;48538;32.784;-96.802;2023-08-12T01:19:34;4.72;;;1.63;;
19808;SDS011;48538;32.784;-96.802;2023-08-12T01:22:04;3.50;;;1.50;;
19808;SDS011;48538;32.784;-96.802;2023-08-12T01:24:35;4.82;;;1.63;;
19808;SDS011;48538;32.784;-96.802;2023-08-12T01:27:03;5.45;;;1.75;;
19808;SDS011;48538;32.784;-96.802;2023-08-12T01:29:30;3.00;;;1.75;;
19808;SDS011;48538;32.784;-96.802;2023-08-12T01:37:46;5.80;;;2.10;;
19808;SDS011;48538;32.784;-96.802;2023-08-12T01:40:15;6.32;;;2.08;;
19808;SDS011;48538;32.784;-96.802;2023-08-12T01:42:43;3.58;;;2.33;;
19808;SDS011;48538;32.784;-96.802;2023-08-12T01:45:11;4.18;;;1.88;;
19808;SDS011;48538;32.784;-96.802;2023-08-12T01:47:37;8.05;;;2.50;;
19808;SDS011;48538;32.784;-96.802;2023-08-12T01:50:03;2.97;;;1.70;;
19808;SDS011;48538;32.784;-96.802;2023-08-12T01:52:31;5.43;;;1.90;;
19808;SDS011;48538;32.784;-96.802;2023-08-12T01:54:57;6.07;;;1.88;;
19808;SDS011;48538;32.784;-96.802;2023-08-12T01:57:24;4.47;;;1.58;;
19808;SDS011;48538;32.784;-96.802;2023-08-12T01:59:51;3.25;;;1.40;;
19808;SDS011;48538;32.784;-96.802;2023-08-12T02:02:17;9.05;;;2.20;;
19808;SDS011;48538;32.784;-96.802;2023-08-12T02:04:43;3.38;;;1.45;;
19808;SDS011;48538;32.784;-96.802;2023-08-12T02:07:10;6.70;;;1.75;;
19808;SDS011;48538;32.784;-96.802;2023-08-12T02:09:36;7.05;;;2.00;;
19808;SDS011;48538;32.784;-96.802;2023-08-12T02:12:02;5.53;;;1.60;;
19808;SDS011;48538;32.784;-96.802;2023-08-12T02:14:29;6.22;;;1.95;;
19808;SDS011;48538;32.784;-96.802;2023-08-12T02:16:55;4.82;;;1.50;;
19808;SDS011;48538;32.784;-96.802;2023-08-12T02:19:21;7.35;;;1.67;;
19808;SDS011;48538;32.784;-96.802;2023-08-12T02:21:47;6.90;;;2.35;;
19808;SDS011;48538;32.784;-96.802;2023-08-12T02:24:13;5.20;;;1.50;;
19808;SDS011;48538;32.784;-96.802;2023-08-12T02:26:40;4.70;;;1.58;;
19808;SDS011;48538;32.784;-96.802;2023-08-12T02:29:06;4.07;;;1.92;;
19808;SDS011;48538;32.784;-96.802;2023-08-12T02:31:32;7.40;;;1.70;;
19808;SDS011;48538;32.784;-96.802;2023-08-12T02:33:58;6.70;;;1.90;;
19808;SDS011;48538;32.784;-96.802;2023-08-12T02:36:24;7.78;;;1.90;;
19808;SDS011;48538;32.784;-96.802;2023-08-12T02:38:52;4.82;;;2.50;;
19808;SDS011;48538;32.784;-96.802;2023-08-12T02:41:18;5.07;;;1.38;;
19808;SDS011;48538;32.784;-96.802;2023-08-12T02:43:44;3.47;;;1.52;;
19808;SDS011;48538;32.784;-96.802;2023-08-12T02:46:10;5.07;;;1.77;;
19808;SDS011;48538;32.784;-96.802;2023-08-12T02:48:38;4.38;;;1.80;;
19808;SDS011;48538;32.784;-96.802;2023-08-12T02:51:04;2.00;;;1.30;;
19808;SDS011;48538;32.784;-96.802;2023-08-12T02:53:30;2.97;;;1.80;;
19808;SDS011;48538;32.784;-96.802;2023-08-12T02:55:56;3.42;;;1.42;;
19808;SDS011;48538;32.784;-96.802;2023-08-12T02:58:22;5.72;;;1.50;;
19808;SDS011;48538;32.784;-96.802;2023-08-12T03:00:49;3.78;;;1.42;;
19808;SDS011;48538;32.784;-96.802;2023-08-12T03:03:15;5.85;;;1.45;;
19808;SDS011;48538;32.784;-96.802;2023-08-12T03:05:41;3.08;;;1.52;;
19808;SDS011;48538;32.784;-96.802;2023-08-12T03:08:10;6.13;;;1.55;;
19808;SDS011;48538;32.784;-96.802;2023-08-12T03:10:37;3.58;;;1.30;;
19808;SDS011;48538;32.784;-96.802;2023-08-12T03:13:04;5.68;;;1.95;;
19808;SDS011;48538;32.784;-96.802;2023-08-12T03:15:30;3.38;;;1.77;;
19808;SDS011;48538;32.784;-96.802;2023-08-12T03:17:56;7.13;;;1.60;;
19808;SDS011;48538;32.784;-96.802;2023-08-12T03:20:23;6.00;;;1.67;;
19808;SDS011;48538;32.784;-96.802;2023-08-12T03:22:49;2.70;;;1.48;;
19808;SDS011;48538;32.784;-96.802;2023-08-12T03:25:15;4.93;;;2.10;;
19808;SDS011;48538;32.784;-96.802;2023-08-12T03:27:42;3.88;;;1.52;;
19808;SDS011;48538;32.784;-96.802;2023-08-12T03:30:08;7.57;;;2.10;;
19808;SDS011;48538;32.784;-96.802;2023-08-12T03:32:35;3.58;;;1.80;;
19808;SDS011;48538;32.784;-96.802;2023-08-12T03:35:01;3.58;;;1.88;;
19808;SDS011;48538;32.784;-96.802;2023-08-12T03:37:27;5.60;;;1.77;;
19808;SDS011;48538;32.784;-96.802;2023-08-12T03:39:54;4.40;;;1.90;;
19808;SDS011;48538;32.784;-96.802;2023-08-12T03:42:20;3.58;;;1.60;;
19808;SDS011;48538;32.784;-96.802;2023-08-12T03:44:46;3.90;;;1.33;;
19808;SDS011;48538;32.784;-96.802;2023-08-12T03:47:12;5.43;;;1.73;;
19808;SDS011;48538;32.784;-96.802;2023-08-12T03:49:38;7.07;;;1.77;;
19808;SDS011;48538;32.784;-96.802;2023-08-12T03:52:05;6.68;;;2.35;;
19808;SDS011;48538;32.784;-96.802;2023-08-12T03:54:32;3.65;;;2.40;;
19808;SDS011;48538;32.784;-96.802;2023-08-12T03:56:59;4.78;;;1.83;;
19808;SDS011;48538;32.784;-96.802;2023-08-12T03:59:25;5.20;;;1.73;;
19808;SDS011;48538;32.784;-96.802;2023-08-12T04:01:51;7.05;;;2.13;;
19808;SDS011;48538;32.784;-96.802;2023-08-12T04:04:18;3.63;;;2.08;;
19808;SDS011;48538;32.784;-96.802;2023-08-12T04:06:44;7.93;;;2.10;;
19808;SDS011;48538;32.784;-96.802;2023-08-12T04:09:10;4.38;;;1.50;;
19808;SDS011;48538;32.784;-96.802;2023-08-12T04:11:36;8.00;;;2.25;;
19808;SDS011;48538;32.784;-96.802;2023-08-12T04:14:02;3.83;;;1.85;;
19808;SDS011;48538;32.784;-96.802;2023-08-12T04:16:29;6.10;;;1.95;;
19808;SDS011;48538;32.784;-96.802;2023-08-12T04:18:55;5.00;;;2.22;;
19808;SDS011;48538;32.784;-96.802;2023-08-12T04:21:21;9.80;;;2.75;;
19808;SDS011;48538;32.784;-96.802;2023-08-12T04:23:48;7.45;;;2.42;;
19808;SDS011;48538;32.784;-96.802;2023-08-12T04:26:14;5.68;;;2.60;;
19808;SDS011;48538;32.784;-96.802;2023-08-12T04:28:40;5.22;;;1.95;;
19808;SDS011;48538;32.784;-96.802;2023-08-12T04:31:06;7.43;;;2.13;;
19808;SDS011;48538;32.784;-96.802;2023-08-12T04:33:33;5.50;;;2.15;;
19808;SDS011;48538;32.784;-96.802;2023-08-12T04:35:59;3.33;;;1.40;;
19808;SDS011;48538;32.784;-96.802;2023-08-12T04:38:26;7.47;;;2.00;;
19808;SDS011;48538;32.784;-96.802;2023-08-12T04:40:52;6.50;;;1.58;;
19808;SDS011;48538;32.784;-96.802;2023-08-12T04:43:20;6.20;;;2.05;;
19808;SDS011;48538;32.784;-96.802;2023-08-12T04:45:46;7.25;;;1.98;;
19808;SDS011;48538;32.784;-96.802;2023-08-12T04:48:12;6.85;;;2.15;;
19808;SDS011;48538;32.784;-96.802;2023-08-12T04:50:39;5.90;;;2.05;;
19808;SDS011;48538;32.784;-96.802;2023-08-12T04:53:07;7.75;;;2.35;;
19808;SDS011;48538;32.784;-96.802;2023-08-12T04:55:34;6.35;;;2.10;;
19808;SDS011;48538;32.784;-96.802;2023-08-12T04:58:01;3.67;;;1.95;;
19808;SDS011;48538;32.784;-96.802;2023-08-12T05:00:28;5.45;;;1.80;;
19808;SDS011;48538;32.784;-96.802;2023-08-12T05:02:55;5.40;;;2.03;;
19808;SDS011;48538;32.784;-96.802;2023-08-12T05:05:21;7.07;;;1.85;;
19808;SDS011;48538;32.784;-96.802;2023-08-12T05:07:47;7.40;;;1.63;;
19808;SDS011;48538;32.784;-96.802;2023-08-12T05:10:15;4.00;;;1.67;;
19808;SDS011;48538;32.784;-96.802;2023-08-12T05:12:42;4.13;;;1.60;;
19808;SDS011;48538;32.784;-96.802;2023-08-12T05:15:09;7.65;;;2.20;;
19808;SDS011;48538;32.784;-96.802;2023-08-12T05:17:36;9.13;;;1.80;;
19808;SDS011;48538;32.784;-96.802;2023-08-12T05:20:03;5.88;;;2.22;;
19808;SDS011;48538;32.784;-96.802;2023-08-12T05:22:29;6.00;;;2.10;;
19808;SDS011;48538;32.784;-96.802;2023-08-12T05:24:56;5.75;;;2.00;;
19808;SDS011;48538;32.784;-96.802;2023-08-12T05:27:22;6.72;;;2.28;;
19808;SDS011;48538;32.784;-96.802;2023-08-12T05:29:48;16.60;;;2.60;;
19808;SDS011;48538;32.784;-96.802;2023-08-12T05:32:14;5.22;;;1.83;;
19808;SDS011;48538;32.784;-96.802;2023-08-12T05:34:41;7.13;;;1.80;;
19808;SDS011;48538;32.784;-96.802;2023-08-12T05:37:07;8.25;;;1.73;;
19808;SDS011;48538;32.784;-96.802;2023-08-12T05:39:34;7.30;;;1.95;;
19808;SDS011;48538;32.784;-96.802;2023-08-12T05:42:00;9.23;;;2.00;;
19808;SDS011;48538;32.784;-96.802;2023-08-12T05:44:26;8.00;;;1.77;;
19808;SDS011;48538;32.784;-96.802;2023-08-12T05:46:53;3.88;;;1.60;;
19808;SDS011;48538;32.784;-96.802;2023-08-12T05:49:19;7.07;;;1.52;;
19808;SDS011;48538;32.784;-96.802;2023-08-12T05:51:45;6.47;;;1.90;;
19808;SDS011;48538;32.784;-96.802;2023-08-12T05:54:12;9.27;;;1.85;;
19808;SDS011;48538;32.784;-96.802;2023-08-12T05:56:38;3.47;;;1.27;;
19808;SDS011;48538;32.784;-96.802;2023-08-12T05:59:04;9.55;;;2.15;;
19808;SDS011;48538;32.784;-96.802;2023-08-12T06:01:31;7.85;;;1.85;;
19808;SDS011;48538;32.784;-96.802;2023-08-12T06:03:57;9.40;;;2.38;;
19808;SDS011;48538;32.784;-96.802;2023-08-12T06:06:23;13.13;;;2.40;;
19808;SDS011;48538;32.784;-96.802;2023-08-12T06:08:49;7.65;;;2.60;;
19808;SDS011;48538;32.784;-96.802;2023-08-12T06:11:16;8.00;;;2.15;;
19808;SDS011;48538;32.784;-96.802;2023-08-12T06:13:42;6.32;;;1.67;;
19808;SDS011;48538;32.784;-96.802;2023-08-12T06:16:08;5.38;;;1.65;;
19808;SDS011;48538;32.784;-96.802;2023-08-12T06:18:35;7.80;;;1.75;;
19808;SDS011;48538;32.784;-96.802;2023-08-12T06:21:01;7.60;;;1.90;;
19808;SDS011;48538;32.784;-96.802;2023-08-12T06:23:27;8.30;;;1.77;;
19808;SDS011;48538;32.784;-96.802;2023-08-12T06:25:55;4.82;;;1.98;;
19808;SDS011;48538;32.784;-96.802;2023-08-12T06:28:21;8.73;;;2.20;;
19808;SDS011;48538;32.784;-96.802;2023-08-12T06:30:47;10.50;;;2.28;;
19808;SDS011;48538;32.784;-96.802;2023-08-12T06:33:14;4.57;;;1.52;;
19808;SDS011;48538;32.784;-96.802;2023-08-12T06:35:41;7.82;;;1.95;;
19808;SDS011;48538;32.784;-96.802;2023-08-12T06:38:07;7.75;;;2.17;;
19808;SDS011;48538;32.784;-96.802;2023-08-12T06:40:37;7.03;;;1.92;;
19808;SDS011;48538;32.784;-96.802;2023-08-12T06:43:04;7.45;;;2.15;;
19808;SDS011;48538;32.784;-96.802;2023-08-12T06:45:30;9.18;;;2.17;;
19808;SDS011;48538;32.784;-96.802;2023-08-12T06:47:56;11.38;;;2.30;;
19808;SDS011;48538;32.784;-96.802;2023-08-12T06:50:22;4.93;;;1.58;;
19808;SDS011;48538;32.784;-96.802;2023-08-12T06:52:49;7.00;;;2.63;;
19808;SDS011;48538;32.784;-96.802;2023-08-12T06:55:15;10.30;;;2.70;;
19808;SDS011;48538;32.784;-96.802;2023-08-12T06:57:41;9.45;;;2.03;;
19808;SDS011;48538;32.784;-96.802;2023-08-12T07:00:08;5.78;;;2.05;;
19808;SDS011;48538;32.784;-96.802;2023-08-12T07:02:34;8.23;;;1.92;;
19808;SDS011;48538;32.784;-96.802;2023-08-12T07:05:01;9.93;;;2.70;;
19808;SDS011;48538;32.784;-96.802;2023-08-12T07:07:27;10.80;;;2.15;;
19808;SDS011;48538;32.784;-96.802;2023-08-12T07:09:53;10.43;;;2.75;;
19808;SDS011;48538;32.784;-96.802;2023-08-12T07:12:19;6.18;;;2.30;;
19808;SDS011;48538;32.784;-96.802;2023-08-12T07:14:46;6.35;;;2.70;;
19808;SDS011;48538;32.784;-96.802;2023-08-12T07:17:12;7.13;;;2.47;;
19808;SDS011;48538;32.784;-96.802;2023-08-12T07:19:38;9.35;;;2.55;;
19808;SDS011;48538;32.784;-96.802;2023-08-12T07:22:04;9.15;;;2.47;;
19808;SDS011;48538;32.784;-96.802;2023-08-12T07:24:30;7.43;;;2.22;;
19808;SDS011;48538;32.784;-96.802;2023-08-12T07:26:57;14.05;;;2.50;;
19808;SDS011;48538;32.784;-96.802;2023-08-12T07:29:23;10.40;;;2.25;;
19808;SDS011;48538;32.784;-96.802;2023-08-12T07:31:49;10.23;;;2.55;;
19808;SDS011;48538;32.784;-96.802;2023-08-12T07:34:17;8.10;;;1.90;;
19808;SDS011;48538;32.784;-96.802;2023-08-12T07:36:43;11.60;;;2.45;;
19808;SDS011;48538;32.784;-96.802;2023-08-12T07:39:09;11.43;;;3.17;;
19808;SDS011;48538;32.784;-96.802;2023-08-12T07:41:36;10.63;;;2.10;;
19808;SDS011;48538;32.784;-96.802;2023-08-12T07:44:03;8.35;;;2.15;;
19808;SDS011;48538;32.784;-96.802;2023-08-12T07:46:30;9.35;;;2.90;;
19808;SDS011;48538;32.784;-96.802;2023-08-12T07:48:56;14.30;;;2.30;;
19808;SDS011;48538;32.784;-96.802;2023-08-12T07:51:23;6.28;;;2.67;;
19808;SDS011;48538;32.784;-96.802;2023-08-12T07:53:49;8.93;;;2.28;;
19808;SDS011;48538;32.784;-96.802;2023-08-12T07:56:15;9.35;;;2.17;;
19808;SDS011;48538;32.784;-96.802;2023-08-12T07:58:41;9.85;;;2.30;;
19808;SDS011;48538;32.784;-96.802;2023-08-12T08:01:08;11.68;;;2.55;;
19808;SDS011;48538;32.784;-96.802;2023-08-12T08:03:34;5.47;;;2.25;;
19808;SDS011;48538;32.784;-96.802;2023-08-12T08:06:00;9.30;;;2.22;;
19808;SDS011;48538;32.784;-96.802;2023-08-12T08:08:27;12.63;;;2.58;;
19808;SDS011;48538;32.784;-96.802;2023-08-12T08:10:53;8.90;;;2.50;;
19808;SDS011;48538;32.784;-96.802;2023-08-12T08:13:19;7.32;;;2.08;;
19808;SDS011;48538;32.784;-96.802;2023-08-12T08:15:45;7.28;;;2.22;;
19808;SDS011;48538;32.784;-96.802;2023-08-12T08:18:12;8.32;;;2.17;;
19808;SDS011;48538;32.784;-96.802;2023-08-12T08:20:42;12.23;;;2.60;;
19808;SDS011;48538;32.784;-96.802;2023-08-12T08:23:08;7.22;;;2.33;;
19808;SDS011;48538;32.784;-96.802;2023-08-12T08:25:35;7.40;;;2.47;;
19808;SDS011;48538;32.784;-96.802;2023-08-12T08:28:01;9.00;;;2.35;;
19808;SDS011;48538;32.784;-96.802;2023-08-12T08:30:28;12.48;;;2.00;;
19808;SDS011;48538;32.784;-96.802;2023-08-12T08:32:54;15.18;;;2.35;;
19808;SDS011;48538;32.784;-96.802;2023-08-12T08:35:20;6.78;;;2.30;;
19808;SDS011;48538;32.784;-96.802;2023-08-12T08:37:47;5.85;;;2.25;;
19808;SDS011;48538;32.784;-96.802;2023-08-12T08:40:13;7.20;;;2.20;;
19808;SDS011;48538;32.784;-96.802;2023-08-12T08:42:40;8.38;;;2.45;;
19808;SDS011;48538;32.784;-96.802;2023-08-12T08:45:12;8.57;;;2.63;;
19808;SDS011;48538;32.784;-96.802;2023-08-12T08:47:39;7.25;;;2.15;;
19808;SDS011;48538;32.784;-96.802;2023-08-12T08:50:08;8.05;;;2.33;;
19808;SDS011;48538;32.784;-96.802;2023-08-12T08:52:35;13.43;;;2.72;;
19808;SDS011;48538;32.784;-96.802;2023-08-12T08:55:04;12.38;;;2.20;;
19808;SDS011;48538;32.784;-96.802;2023-08-12T08:57:31;11.48;;;2.40;;
19808;SDS011;48538;32.784;-96.802;2023-08-12T08:59:57;8.30;;;2.72;;
19808;SDS011;48538;32.784;-96.802;2023-08-12T09:02:24;5.32;;;2.20;;
19808;SDS011;48538;32.784;-96.802;2023-08-12T09:04:51;9.85;;;2.70;;
19808;SDS011;48538;32.784;-96.802;2023-08-12T09:07:18;9.93;;;2.42;;
19808;SDS011;48538;32.784;-96.802;2023-08-12T09:09:46;4.10;;;1.60;;
19808;SDS011;48538;32.784;-96.802;2023-08-12T09:12:16;8.00;;;2.58;;
19808;SDS011;48538;32.784;-96.802;2023-08-12T09:14:43;6.00;;;2.10;;
19808;SDS011;48538;32.784;-96.802;2023-08-12T09:17:10;10.07;;;2.58;;
19808;SDS011;48538;32.784;-96.802;2023-08-12T09:19:36;6.47;;;1.98;;
19808;SDS011;48538;32.784;-96.802;2023-08-12T09:22:03;7.05;;;2.38;;
19808;SDS011;48538;32.784;-96.802;2023-08-12T09:24:30;5.35;;;1.75;;
19808;SDS011;48538;32.784;-96.802;2023-08-12T09:26:56;9.18;;;2.03;;
19808;SDS011;48538;32.784;-96.802;2023-08-12T09:29:23;6.22;;;1.80;;
19808;SDS011;48538;32.784;-96.802;2023-08-12T09:31:54;8.23;;;2.00;;
19808;SDS011;48538;32.784;-96.802;2023-08-12T09:34:34;11.30;;;2.28;;
19808;SDS011;48538;32.784;-96.802;2023-08-12T09:37:01;6.18;;;2.10;;
19808;SDS011;48538;32.784;-96.802;2023-08-12T09:39:28;7.85;;;1.77;;
19808;SDS011;48538;32.784;-96.802;2023-08-12T09:41:58;5.57;;;1.65;;
19808;SDS011;48538;32.784;-96.802;2023-08-12T09:44:26;4.97;;;2.13;;
19808;SDS011;48538;32.784;-96.802;2023-08-12T09:46:56;9.52;;;2.17;;
19808;SDS011;48538;32.784;-96.802;2023-08-12T09:49:24;10.82;;;2.45;;
19808;SDS011;48538;32.784;-96.802;2023-08-12T09:51:50;7.63;;;1.73;;
19808;SDS011;48538;32.784;-96.802;2023-08-12T09:54:17;10.45;;;2.67;;
19808;SDS011;48538;32.784;-96.802;2023-08-12T09:56:47;8.15;;;2.00;;
19808;SDS011;48538;32.784;-96.802;2023-08-12T09:59:16;4.53;;;1.80;;
19808;SDS011;48538;32.784;-96.802;2023-08-12T10:01:46;6.10;;;1.75;;
19808;SDS011;48538;32.784;-96.802;2023-08-12T10:04:14;10.93;;;1.92;;
19808;SDS011;48538;32.784;-96.802;2023-08-12T10:06:44;7.15;;;1.98;;
19808;SDS011;48538;32.784;-96.802;2023-08-12T10:09:10;8.55;;;1.98;;
19808;SDS011;48538;32.784;-96.802;2023-08-12T10:11:37;11.10;;;3.33;;
19808;SDS011;48538;32.784;-96.802;2023-08-12T10:14:04;7.68;;;2.17;;
19808;SDS011;48538;32.784;-96.802;2023-08-12T10:16:31;5.28;;;1.73;;
19808;SDS011;48538;32.784;-96.802;2023-08-12T10:18:58;3.00;;;1.70;;
19808;SDS011;48538;32.784;-96.802;2023-08-12T10:21:26;4.55;;;1.50;;
19808;SDS011;48538;32.784;-96.802;2023-08-12T10:23:53;7.05;;;1.73;;
19808;SDS011;48538;32.784;-96.802;2023-08-12T10:26:23;6.97;;;1.77;;
19808;SDS011;48538;32.784;-96.802;2023-08-12T10:28:51;7.70;;;2.70;;
19808;SDS011;48538;32.784;-96.802;2023-08-12T10:31:18;3.53;;;1.55;;
19808;SDS011;48538;32.784;-96.802;2023-08-12T10:33:45;3.30;;;1.60;;
19808;SDS011;48538;32.784;-96.802;2023-08-12T10:36:15;7.07;;;2.00;;
19808;SDS011;48538;32.784;-96.802;2023-08-12T10:38:44;6.50;;;1.73;;
19808;SDS011;48538;32.784;-96.802;2023-08-12T10:41:17;5.15;;;2.08;;
19808;SDS011;48538;32.784;-96.802;2023-08-12T10:46:28;8.18;;;2.35;;
19808;SDS011;48538;32.784;-96.802;2023-08-12T10:52:04;5.70;;;1.35;;
19808;SDS011;48538;32.784;-96.802;2023-08-12T10:54:27;6.50;;;1.90;;
19808;SDS011;48538;32.784;-96.802;2023-08-12T10:57:06;6.70;;;1.52;;
19808;SDS011;48538;32.784;-96.802;2023-08-12T11:02:32;5.10;;;1.73;;
19808;SDS011;48538;32.784;-96.802;2023-08-12T11:05:08;5.65;;;1.77;;
19808;SDS011;48538;32.784;-96.802;2023-08-12T11:10:16;5.57;;;1.92;;
19808;SDS011;48538;32.784;-96.802;2023-08-12T11:12:49;4.78;;;1.90;;
19808;SDS011;48538;32.784;-96.802;2023-08-12T11:18:10;3.92;;;1.52;;
19808;SDS011;48538;32.784;-96.802;2023-08-12T11:20:39;7.47;;;2.40;;
19808;SDS011;48538;32.784;-96.802;2023-08-12T11:23:06;5.60;;;2.30;;
19808;SDS011;48538;32.784;-96.802;2023-08-12T11:25:34;5.15;;;1.73;;
19808;SDS011;48538;32.784;-96.802;2023-08-12T11:28:03;4.22;;;1.98;;
19808;SDS011;48538;32.784;-96.802;2023-08-12T11:30:30;8.02;;;2.88;;
19808;SDS011;48538;32.784;-96.802;2023-08-12T11:32:57;4.03;;;1.58;;
19808;SDS011;48538;32.784;-96.802;2023-08-12T11:35:25;4.25;;;1.90;;
19808;SDS011;48538;32.784;-96.802;2023-08-12T11:37:55;5.40;;;1.88;;
19808;SDS011;48538;32.784;-96.802;2023-08-12T11:40:23;4.03;;;1.92;;
19808;SDS011;48538;32.784;-96.802;2023-08-12T11:42:51;8.77;;;2.08;;
19808;SDS011;48538;32.784;-96.802;2023-08-12T11:45:19;4.47;;;1.70;;
19808;SDS011;48538;32.784;-96.802;2023-08-12T11:47:46;8.05;;;2.45;;
19808;SDS011;48538;32.784;-96.802;2023-08-12T11:50:18;7.35;;;2.33;;
19808;SDS011;48538;32.784;-96.802;2023-08-12T11:52:45;7.97;;;1.98;;
19808;SDS011;48538;32.784;-96.802;2023-08-12T11:55:12;9.38;;;2.65;;
19808;SDS011;48538;32.784;-96.802;2023-08-12T11:57:39;8.63;;;2.30;;
19808;SDS011;48538;32.784;-96.802;2023-08-12T12:00:08;5.60;;;2.10;;
19808;SDS011;48538;32.784;-96.802;2023-08-12T12:02:48;5.22;;;2.20;;
19808;SDS011;48538;32.784;-96.802;2023-08-12T12:05:16;7.65;;;1.95;;
19808;SDS011;48538;32.784;-96.802;2023-08-12T12:07:43;7.70;;;2.53;;
19808;SDS011;48538;32.784;-96.802;2023-08-12T12:10:13;2.95;;;1.98;;
19808;SDS011;48538;32.784;-96.802;2023-08-12T12:12:44;10.43;;;2.15;;
19808;SDS011;48538;32.784;-96.802;2023-08-12T12:15:12;5.50;;;1.88;;
19808;SDS011;48538;32.784;-96.802;2023-08-12T12:17:40;6.47;;;2.20;;
19808;SDS011;48538;32.784;-96.802;2023-08-12T12:20:06;7.65;;;2.50;;
19808;SDS011;48538;32.784;-96.802;2023-08-12T12:22:36;6.00;;;2.72;;
19808;SDS011;48538;32.784;-96.802;2023-08-12T12:25:10;8.05;;;2.33;;
19808;SDS011;48538;32.784;-96.802;2023-08-12T12:27:37;7.70;;;2.40;;
19808;SDS011;48538;32.784;-96.802;2023-08-12T12:30:05;8.55;;;2.53;;
19808;SDS011;48538;32.784;-96.802;2023-08-12T12:32:35;9.00;;;2.33;;
19808;SDS011;48538;32.784;-96.802;2023-08-12T12:35:02;6.22;;;2.63;;
19808;SDS011;48538;32.784;-96.802;2023-08-12T12:37:29;7.18;;;2.28;;
19808;SDS011;48538;32.784;-96.802;2023-08-12T12:39:55;8.30;;;2.50;;
19808;SDS011;48538;32.784;-96.802;2023-08-12T12:42:22;7.53;;;2.60;;
19808;SDS011;48538;32.784;-96.802;2023-08-12T12:44:48;8.02;;;2.95;;
19808;SDS011;48538;32.784;-96.802;2023-08-12T12:47:14;14.32;;;3.40;;
19808;SDS011;48538;32.784;-96.802;2023-08-12T12:49:40;6.55;;;2.35;;
19808;SDS011;48538;32.784;-96.802;2023-08-12T12:52:06;6.13;;;2.70;;
19808;SDS011;48538;32.784;-96.802;2023-08-12T12:54:33;10.68;;;2.85;;
19808;SDS011;48538;32.784;-96.802;2023-08-12T12:56:59;5.60;;;2.63;;
19808;SDS011;48538;32.784;-96.802;2023-08-12T12:59:26;8.38;;;2.33;;
19808;SDS011;48538;32.784;-96.802;2023-08-12T13:01:53;8.73;;;2.88;;
19808;SDS011;48538;32.784;-96.802;2023-08-12T13:04:19;9.63;;;2.95;;
19808;SDS011;48538;32.784;-96.802;2023-08-12T13:06:45;7.35;;;2.63;;
19808;SDS011;48538;32.784;-96.802;2023-08-12T13:09:12;5.22;;;2.80;;
19808;SDS011;48538;32.784;-96.802;2023-08-12T13:11:38;7.32;;;2.92;;
19808;SDS011;48538;32.784;-96.802;2023-08-12T13:14:04;6.97;;;2.78;;
19808;SDS011;48538;32.784;-96.802;2023-08-12T13:16:30;7.80;;;3.15;;
19808;SDS011;48538;32.784;-96.802;2023-08-12T13:18:57;6.55;;;3.17;;
19808;SDS011;48538;32.784;-96.802;2023-08-12T13:21:25;6.60;;;3.08;;
19808;SDS011;48538;32.784;-96.802;2023-08-12T13:23:51;7.57;;;2.95;;
19808;SDS011;48538;32.784;-96.802;2023-08-12T13:26:18;6.13;;;2.92;;
19808;SDS011;48538;32.784;-96.802;2023-08-12T13:28:45;7.15;;;3.58;;
19808;SDS011;48538;32.784;-96.802;2023-08-12T13:31:12;8.25;;;3.45;;
19808;SDS011;48538;32.784;-96.802;2023-08-12T13:33:38;10.85;;;3.42;;
19808;SDS011;48538;32.784;-96.802;2023-08-12T13:36:04;10.90;;;3.25;;
19808;SDS011;48538;32.784;-96.802;2023-08-12T13:38:31;8.30;;;3.70;;
19808;SDS011;48538;32.784;-96.802;2023-08-12T13:40:57;7.30;;;3.38;;
19808;SDS011;48538;32.784;-96.802;2023-08-12T13:43:23;7.10;;;3.90;;
19808;SDS011;48538;32.784;-96.802;2023-08-12T13:45:50;8.25;;;3.53;;
19808;SDS011;48538;32.784;-96.802;2023-08-12T13:48:16;8.20;;;3.80;;
19808;SDS011;48538;32.784;-96.802;2023-08-12T13:50:42;7.43;;;3.55;;
19808;SDS011;48538;32.784;-96.802;2023-08-12T13:53:08;7.97;;;3.70;;
19808;SDS011;48538;32.784;-96.802;2023-08-12T13:55:34;10.95;;;3.92;;
19808;SDS011;48538;32.784;-96.802;2023-08-12T13:58:01;7.15;;;4.07;;
19808;SDS011;48538;32.784;-96.802;2023-08-12T14:00:27;9.80;;;4.03;;
19808;SDS011;48538;32.784;-96.802;2023-08-12T14:02:53;8.85;;;3.53;;
19808;SDS011;48538;32.784;-96.802;2023-08-12T14:05:19;12.65;;;3.78;;
19808;SDS011;48538;32.784;-96.802;2023-08-12T14:07:46;11.18;;;3.80;;
19808;SDS011;48538;32.784;-96.802;2023-08-12T14:10:12;11.48;;;4.15;;
19808;SDS011;48538;32.784;-96.802;2023-08-12T14:12:38;12.40;;;4.40;;
19808;SDS011;48538;32.784;-96.802;2023-08-12T14:15:04;10.43;;;4.28;;
19808;SDS011;48538;32.784;-96.802;2023-08-12T14:17:31;11.40;;;4.30;;
19808;SDS011;48538;32.784;-96.802;2023-08-12T14:19:57;6.60;;;3.55;;
19808;SDS011;48538;32.784;-96.802;2023-08-12T14:22:24;8.23;;;3.75;;
19808;SDS011;48538;32.784;-96.802;2023-08-12T14:24:51;6.80;;;3.20;;
19808;SDS011;48538;32.784;-96.802;2023-08-12T14:27:18;8.55;;;3.78;;
19808;SDS011;48538;32.784;-96.802;2023-08-12T14:29:44;5.85;;;3.72;;
19808;SDS011;48538;32.784;-96.802;2023-08-12T14:32:11;7.43;;;3.20;;
19808;SDS011;48538;32.784;-96.802;2023-08-12T14:34:37;16.05;;;4.95;;
19808;SDS011;48538;32.784;-96.802;2023-08-12T14:37:03;11.25;;;3.90;;
19808;SDS011;48538;32.784;-96.802;2023-08-12T14:39:30;7.07;;;3.63;;
19808;SDS011;48538;32.784;-96.802;2023-08-12T14:41:56;8.18;;;3.75;;